sensor_id;sensor_type;location;lat;lon;timestamp;P1;P2;P0
68341;PMS7003;55668;52.310;21.066;2022-12-19T00:08:49;17;17;
68341;PMS7003;55668;52.310;21.066;2022-12-19T00:36:56;19;18;
68341;PMS7003;55668;52.310;21.066;2022-12-19T01:08:16;15;15;
68341;PMS7003;55668;52.310;21.066;2022-12-19T01:23:04;19;19;
68341;PMS7003;55668;52.310;21.066;2022-12-19T01:38:24;15;15;
68341;PMS7003;55668;52.310;21.066;2022-12-19T01:53:36;18;16;
68341;PMS7003;55668;52.310;21.066;2022-12-19T02:40:40;14;13;
68341;PMS7003;55668;52.310;21.066;2022-12-19T03:28:11;17;17;
68341;PMS7003;55668;52.310;21.066;2022-12-19T03:42:02;16;16;
68341;PMS7003;55668;52.310;21.066;2022-12-19T03:56:50;16;15;
68341;PMS7003;55668;52.310;21.066;2022-12-19T04:11:48;19;19;
68341;PMS7003;55668;52.310;21.066;2022-12-19T04:30:43;20;17;
68341;PMS7003;55668;52.310;21.066;2022-12-19T04:43:14;21;20;
68341;PMS7003;55668;52.310;21.066;2022-12-19T04:58:00;18;18;
68341;PMS7003;55668;52.310;21.066;2022-12-19T05:15:54;21;18;
68341;PMS7003;55668;52.310;21.066;2022-12-19T05:32:15;23;21;
68341;PMS7003;55668;52.310;21.066;2022-12-19T05:45:04;22;22;
68341;PMS7003;55668;52.310;21.066;2022-12-19T06:17:54;24;24;
68341;PMS7003;55668;52.310;21.066;2022-12-19T06:33:42;20;20;
68341;PMS7003;55668;52.310;21.066;2022-12-19T06:45:49;24;22;
68341;PMS7003;55668;52.310;21.066;2022-12-19T07:19:06;23;19;
68341;PMS7003;55668;52.310;21.066;2022-12-19T07:34:04;26;26;
68341;PMS7003;55668;52.310;21.066;2022-12-19T08:02:54;22;22;
68341;PMS7003;55668;52.310;21.066;2022-12-19T08:18:38;21;21;
68341;PMS7003;55668;52.310;21.066;2022-12-19T08:35:53;18;18;
68341;PMS7003;55668;52.310;21.066;2022-12-19T08:49:01;21;21;
68341;PMS7003;55668;52.310;21.066;2022-12-19T09:03:42;30;30;
68341;PMS7003;55668;52.310;21.066;2022-12-19T09:20:51;41;35;
68341;PMS7003;55668;52.310;21.066;2022-12-19T09:34:20;35;33;
68341;PMS7003;55668;52.310;21.066;2022-12-19T09:54:00;36;32;
68341;PMS7003;55668;52.310;21.066;2022-12-19T10:05:37;36;33;
68341;PMS7003;55668;52.310;21.066;2022-12-19T10:21:02;30;29;
68341;PMS7003;55668;52.310;21.066;2022-12-19T10:36:39;23;23;
68341;PMS7003;55668;52.310;21.066;2022-12-19T10:52:56;27;24;
68341;PMS7003;55668;52.310;21.066;2022-12-19T11:08:00;23;23;
68341;PMS7003;55668;52.310;21.066;2022-12-19T11:22:03;21;21;
68341;PMS7003;55668;52.310;21.066;2022-12-19T11:53:09;30;30;
68341;PMS7003;55668;52.310;21.066;2022-12-19T12:08:57;29;29;
68341;PMS7003;55668;52.310;21.066;2022-12-19T12:25:19;28;28;
68341;PMS7003;55668;52.310;21.066;2022-12-19T13:11:53;25;24;
68341;PMS7003;55668;52.310;21.066;2022-12-19T13:25:52;24;24;
68341;PMS7003;55668;52.310;21.066;2022-12-19T13:42:54;27;26;
68341;PMS7003;55668;52.310;21.066;2022-12-19T13:56:52;25;21;
68341;PMS7003;55668;52.310;21.066;2022-12-19T14:10:56;27;27;
68341;PMS7003;55668;52.310;21.066;2022-12-19T14:28:06;25;25;
68341;PMS7003;55668;52.310;21.066;2022-12-19T14:44:44;21;21;
68341;PMS7003;55668;52.310;21.066;2022-12-19T15:13:21;24;24;
68341;PMS7003;55668;52.310;21.066;2022-12-19T15:45:14;29;27;
68341;PMS7003;55668;52.310;21.066;2022-12-19T15:58:39;23;23;
68341;PMS7003;55668;52.310;21.066;2022-12-19T16:15:49;25;23;
68341;PMS7003;55668;52.310;21.066;2022-12-19T16:33:21;31;30;
68341;PMS7003;55668;52.310;21.066;2022-12-19T17:16:20;33;29;
68341;PMS7003;55668;52.310;21.066;2022-12-19T17:30:50;31;29;
68341;PMS7003;55668;52.310;21.066;2022-12-19T18:06:09;31;29;
68341;PMS7003;55668;52.310;21.066;2022-12-19T18:17:52;32;31;
68341;PMS7003;55668;52.310;21.066;2022-12-19T18:32:16;31;31;
68341;PMS7003;55668;52.310;21.066;2022-12-19T18:48:31;30;29;
68341;PMS7003;55668;52.310;21.066;2022-12-19T19:04:20;32;31;
68341;PMS7003;55668;52.310;21.066;2022-12-19T19:18:33;33;31;
68341;PMS7003;55668;52.310;21.066;2022-12-19T19:49:51;33;32;
68341;PMS7003;55668;52.310;21.066;2022-12-19T20:06:07;34;31;
68341;PMS7003;55668;52.310;21.066;2022-12-19T20:20:14;34;31;
68341;PMS7003;55668;52.310;21.066;2022-12-19T20:36:07;27;26;
68341;PMS7003;55668;52.310;21.066;2022-12-19T20:54:06;34;32;
68341;PMS7003;55668;52.310;21.066;2022-12-19T21:06:27;35;32;
68341;PMS7003;55668;52.310;21.066;2022-12-19T21:22:41;34;31;
68341;PMS7003;55668;52.310;21.066;2022-12-19T21:37:34;40;36;
68341;PMS7003;55668;52.310;21.066;2022-12-19T21:54:29;42;37;
68341;PMS7003;55668;52.310;21.066;2022-12-19T22:07:27;30;30;
68341;PMS7003;55668;52.310;21.066;2022-12-19T22:24:50;30;28;
68341;PMS7003;55668;52.310;21.066;2022-12-19T22:38:49;27;23;
68341;PMS7003;55668;52.310;21.066;2022-12-19T22:54:30;26;25;
68341;PMS7003;55668;52.310;21.066;2022-12-19T23:10:24;26;26;
68341;PMS7003;55668;52.310;21.066;2022-12-19T23:28:30;25;25;
68341;PMS7003;55668;52.310;21.066;2022-12-19T23:40:28;31;28;
68341;PMS7003;55668;52.310;21.066;2022-12-19T23:55:11;26;26;
